Time;durP1;ratioP1;P1;durP2;ratioP2;P2;SDS_P1;SDS_P2;PMS_P1;PMS_P2;Temp;Humidity;BMP_temperature;BMP_pressure;BME280_temperature;BME280_humidity;BME280_pressure;Samples;Min_cycle;Max_cycle;Signal;HPM_P1;HPM_P2
2024/02/16 00:04:44;;;;;;;85.13;46.63;;;;;;;;;;13112184;22;20367;-87
2024/02/16 00:09:47;;;;;;;78.83;44.37;;;;;;;;;;13109924;22;20957;-86
2024/02/16 00:14:51;;;;;;;82.47;44.60;;;;;;;;;;13112541;22;20363;-86
2024/02/16 00:19:53;;;;;;;79.53;43.17;;;;;;;;;;13110971;22;20815;-87
2024/02/16 00:24:55;;;;;;;74.20;43.27;;;;;;;;;;13111476;22;20359;-87
2024/02/16 00:29:59;;;;;;;76.07;42.97;;;;;;;;;;13111459;22;20363;-87
2024/02/16 00:35:02;;;;;;;77.43;43.93;;;;;;;;;;13112572;22;20496;-86
2024/02/16 00:40:06;;;;;;;73.97;42.77;;;;;;;;;;13111878;22;20433;-87
2024/02/16 00:45:10;;;;;;;77.22;44.13;;;;;;;;;;13112135;22;20367;-87
2024/02/16 00:50:13;;;;;;;77.78;45.92;;;;;;;;;;13110787;22;20360;-86
2024/02/16 00:55:15;;;;;;;84.30;48.00;;;;;;;;;;13111559;22;20356;-86
2024/02/16 01:00:20;;;;;;;63.53;37.95;;;;;;;;;;13112002;22;20433;-86
2024/02/16 01:05:23;;;;;;;63.90;37.42;;;;;;;;;;13112164;22;20440;-87
2024/02/16 01:10:25;;;;;;;63.05;37.38;;;;;;;;;;13110646;22;20367;-87
2024/02/16 01:15:29;;;;;;;65.38;37.70;;;;;;;;;;13110462;22;20425;-87
2024/02/16 01:20:31;;;;;;;58.25;34.83;;;;;;;;;;13111530;22;21204;-86
2024/02/16 01:25:34;;;;;;;51.08;33.05;;;;;;;;;;13113962;22;20410;-86
2024/02/16 01:30:37;;;;;;;48.07;32.97;;;;;;;;;;13087929;22;20679;-86
2024/02/16 01:35:40;;;;;;;48.70;32.90;;;;;;;;;;13114260;22;20370;-87
2024/02/16 01:40:42;;;;;;;49.78;33.53;;;;;;;;;;13114975;22;20373;-86
2024/02/16 01:45:46;;;;;;;49.92;32.78;;;;;;;;;;13114511;22;20707;-87
2024/02/16 01:50:50;;;;;;;51.90;34.55;;;;;;;;;;13115173;22;20377;-86
2024/02/16 01:55:52;;;;;;;48.33;32.73;;;;;;;;;;13114450;22;20950;-86
2024/02/16 02:00:56;;;;;;;48.88;33.22;;;;;;;;;;13113872;22;20416;-87
2024/02/16 02:05:58;;;;;;;50.97;32.72;;;;;;;;;;13114151;22;20885;-86
2024/02/16 02:11:02;;;;;;;52.83;34.65;;;;;;;;;;13112978;22;20367;-86
2024/02/16 02:16:08;;;;;;;48.50;32.47;;;;;;;;;;13087715;22;20437;-86
2024/02/16 02:21:13;;;;;;;47.72;31.83;;;;;;;;;;13111930;22;20384;-87
2024/02/16 02:26:17;;;;;;;43.87;32.13;;;;;;;;;;13114732;22;20481;-86
2024/02/16 02:31:20;;;;;;;46.03;32.23;;;;;;;;;;13114299;22;20386;-87
2024/02/16 02:36:22;;;;;;;49.33;34.90;;;;;;;;;;13114169;22;20463;-86
2024/02/16 02:41:26;;;;;;;45.17;31.73;;;;;;;;;;13105700;22;20385;-86
2024/02/16 02:46:29;;;;;;;50.87;32.13;;;;;;;;;;13111429;22;20468;-86
2024/02/16 02:51:31;;;;;;;55.90;31.92;;;;;;;;;;13113811;22;20841;-86
2024/02/16 02:56:35;;;;;;;50.13;31.37;;;;;;;;;;13113613;22;20437;-87
2024/02/16 03:01:38;;;;;;;48.63;29.63;;;;;;;;;;13114616;22;20373;-86
2024/02/16 03:06:40;;;;;;;46.05;29.10;;;;;;;;;;13113421;22;20417;-86
2024/02/16 03:11:44;;;;;;;45.33;28.67;;;;;;;;;;13112611;22;20916;-86
2024/02/16 03:16:46;;;;;;;54.20;32.42;;;;;;;;;;13114063;22;20383;-86
2024/02/16 03:21:49;;;;;;;52.45;30.98;;;;;;;;;;13113599;22;20366;-87
2024/02/16 03:26:53;;;;;;;45.28;29.90;;;;;;;;;;13112583;22;20524;-86
2024/02/16 03:31:55;;;;;;;43.97;29.50;;;;;;;;;;13112111;22;20424;-86
2024/02/16 03:36:58;;;;;;;49.87;31.60;;;;;;;;;;13112470;22;20405;-86
2024/02/16 03:42:02;;;;;;;57.07;32.37;;;;;;;;;;13111895;22;20355;-87
2024/02/16 03:47:05;;;;;;;55.67;32.20;;;;;;;;;;13112305;22;20394;-88
2024/02/16 03:52:08;;;;;;;51.85;32.33;;;;;;;;;;13086678;22;20398;-88
2024/02/16 03:57:12;;;;;;;48.55;31.85;;;;;;;;;;13112317;22;20397;-87
2024/02/16 04:02:14;;;;;;;51.05;34.70;;;;;;;;;;13113074;22;20428;-87
2024/02/16 04:07:18;;;;;;;50.80;33.70;;;;;;;;;;13112125;22;20430;-87
2024/02/16 04:12:22;;;;;;;49.17;33.70;;;;;;;;;;13111929;22;20459;-87
2024/02/16 04:17:25;;;;;;;67.40;39.80;;;;;;;;;;13112044;22;20379;-88
2024/02/16 04:22:27;;;;;;;54.07;35.50;;;;;;;;;;13112680;22;20412;-87
2024/02/16 04:27:31;;;;;;;50.60;31.35;;;;;;;;;;13112442;22;20766;-87
2024/02/16 04:32:33;;;;;;;47.22;32.00;;;;;;;;;;13112903;22;20918;-87
2024/02/16 04:37:36;;;;;;;46.53;31.45;;;;;;;;;;13109795;22;20405;-87
2024/02/16 04:42:41;;;;;;;50.50;32.17;;;;;;;;;;13111827;22;20359;-87
2024/02/16 04:47:43;;;;;;;62.10;36.95;;;;;;;;;;13110875;22;20397;-87
2024/02/16 04:52:45;;;;;;;48.90;30.90;;;;;;;;;;13112226;22;20394;-87
2024/02/16 04:57:49;;;;;;;48.55;32.15;;;;;;;;;;13111185;22;20387;-87
2024/02/16 05:02:52;;;;;;;50.03;31.88;;;;;;;;;;13111454;22;20363;-87
2024/02/16 05:07:54;;;;;;;48.67;30.23;;;;;;;;;;13125623;22;20371;-87
2024/02/16 05:12:59;;;;;;;52.97;32.10;;;;;;;;;;13132265;22;20464;-87
2024/02/16 05:18:01;;;;;;;48.17;31.05;;;;;;;;;;13109266;22;20375;-88
2024/02/16 05:23:04;;;;;;;53.87;30.73;;;;;;;;;;13109697;22;20364;-87
2024/02/16 05:28:08;;;;;;;50.50;29.60;;;;;;;;;;13131786;22;20382;-87
2024/02/16 05:33:10;;;;;;;47.70;29.50;;;;;;;;;;13110623;22;20394;-87
2024/02/16 05:38:21;;;;;;;43.72;28.27;;;;;;;;;;13108791;22;20460;-86
2024/02/16 05:43:24;;;;;;;42.78;28.17;;;;;;;;;;13131386;22;20355;-87
2024/02/16 05:48:30;;;;;;;42.53;28.93;;;;;;;;;;13108833;22;20394;-87
2024/02/16 05:53:33;;;;;;;48.97;30.13;;;;;;;;;;13111267;22;20472;-87
2024/02/16 05:58:37;;;;;;;47.72;29.52;;;;;;;;;;13110147;22;20401;-88
2024/02/16 06:03:42;;;;;;;46.03;29.48;;;;;;;;;;13132445;22;20385;-94
2024/02/16 06:08:44;;;;;;;46.33;31.15;;;;;;;;;;13110338;22;20366;-95
2024/02/16 06:13:49;;;;;;;50.43;31.83;;;;;;;;;;13129677;22;20343;-93
2024/02/16 06:18:52;;;;;;;47.40;30.47;;;;;;;;;;13131263;22;20405;-93
2024/02/16 06:23:54;;;;;;;46.80;30.63;;;;;;;;;;13109773;22;20352;-93
2024/02/16 06:28:59;;;;;;;46.08;30.02;;;;;;;;;;13146439;22;20343;-93
2024/02/16 06:34:01;;;;;;;46.97;30.75;;;;;;;;;;13141166;22;20432;-92
2024/02/16 06:39:05;;;;;;;49.60;30.67;;;;;;;;;;13112585;22;20375;-90
2024/02/16 06:44:09;;;;;;;46.42;31.42;;;;;;;;;;13109377;22;20359;-92
2024/02/16 06:49:11;;;;;;;49.13;32.67;;;;;;;;;;13108417;22;20374;-92
2024/02/16 06:54:14;;;;;;;53.05;33.97;;;;;;;;;;13135841;22;20367;-92
2024/02/16 06:59:18;;;;;;;54.78;34.50;;;;;;;;;;13137384;22;20456;-91
2024/02/16 07:04:20;;;;;;;60.95;37.40;;;;;;;;;;13114600;22;20359;-93
2024/02/16 07:09:23;;;;;;;49.08;31.58;;;;;;;;;;13113895;22;20371;-92
2024/02/16 07:14:26;;;;;;;49.28;31.88;;;;;;;;;;13113504;22;20425;-92
2024/02/16 07:19:29;;;;;;;55.13;36.50;;;;;;;;;;13115470;22;20418;-91
2024/02/16 07:24:31;;;;;;;54.58;34.13;;;;;;;;;;13120286;22;20390;-92
2024/02/16 07:29:35;;;;;;;52.60;34.53;;;;;;;;;;13148819;22;20378;-93
2024/02/16 07:34:38;;;;;;;58.63;36.53;;;;;;;;;;13162418;22;20434;-93
2024/02/16 07:39:41;;;;;;;67.05;38.67;;;;;;;;;;13116761;22;20405;-91
2024/02/16 10:51:32;;;;;;;56.60;35.37;;;;;;;;;;13041304;22;2145925;-96
2024/02/16 10:56:35;;;;;;;57.38;35.53;;;;;;;;;;13114789;22;20375;-95
2024/02/16 11:01:41;;;;;;;60.47;35.97;;;;;;;;;;13108597;22;20514;-95
2024/02/16 11:06:49;;;;;;;58.00;35.42;;;;;;;;;;13114641;22;21088;-93
2024/02/16 11:11:54;;;;;;;52.75;34.00;;;;;;;;;;13150548;22;20420;-92
2024/02/16 11:16:57;;;;;;;56.78;34.40;;;;;;;;;;13134178;22;20460;-94
2024/02/16 11:22:07;;;;;;;51.88;32.47;;;;;;;;;;13107940;22;20371;-93
2024/02/16 11:27:10;;;;;;;49.90;32.05;;;;;;;;;;13137940;22;20372;-92
2024/02/16 11:32:13;;;;;;;52.28;33.17;;;;;;;;;;13120070;22;20444;-91
2024/02/16 11:37:17;;;;;;;55.67;34.03;;;;;;;;;;13107043;22;20436;-91
2024/02/16 11:42:20;;;;;;;56.08;34.13;;;;;;;;;;13123154;22;20379;-91
2024/02/16 11:47:25;;;;;;;53.10;34.50;;;;;;;;;;13125305;22;20393;-90
2024/02/16 11:52:29;;;;;;;52.60;33.85;;;;;;;;;;13105889;22;20355;-91
2024/02/16 11:57:32;;;;;;;54.55;31.98;;;;;;;;;;13105020;22;20375;-91
2024/02/16 12:02:35;;;;;;;51.53;32.53;;;;;;;;;;13105234;22;20508;-91
2024/02/16 12:07:40;;;;;;;47.42;29.38;;;;;;;;;;13106509;22;20741;-90
2024/02/16 12:12:43;;;;;;;48.15;29.55;;;;;;;;;;13106304;22;20413;-92
2024/02/16 12:17:45;;;;;;;47.13;29.60;;;;;;;;;;13106723;22;20412;-92
2024/02/16 12:22:49;;;;;;;46.93;29.20;;;;;;;;;;13109732;22;20468;-93
2024/02/16 12:27:51;;;;;;;44.45;27.50;;;;;;;;;;13145011;22;20363;-91
2024/02/16 12:32:54;;;;;;;44.30;27.48;;;;;;;;;;13127456;22;20363;-89
2024/02/16 12:37:58;;;;;;;52.15;30.02;;;;;;;;;;13109600;22;20459;-89
2024/02/16 12:43:00;;;;;;;49.17;28.83;;;;;;;;;;13126373;22;20371;-87
2024/02/16 12:48:03;;;;;;;46.70;27.33;;;;;;;;;;13106432;22;20371;-89
2024/02/16 12:53:07;;;;;;;43.90;25.60;;;;;;;;;;13107084;22;20436;-87
2024/02/16 12:58:09;;;;;;;45.23;27.03;;;;;;;;;;13105473;22;20382;-86
2024/02/16 13:03:12;;;;;;;46.00;27.20;;;;;;;;;;13106032;22;20656;-87
2024/02/16 13:08:15;;;;;;;54.30;30.17;;;;;;;;;;13116956;22;20359;-87
2024/02/16 13:13:18;;;;;;;62.95;42.08;;;;;;;;;;13105562;22;20413;-86
2024/02/16 13:18:20;;;;;;;46.55;28.05;;;;;;;;;;13123625;22;20387;-87
2024/02/16 13:23:25;;;;;;;46.13;27.73;;;;;;;;;;13127051;22;20425;-87
2024/02/16 13:28:27;;;;;;;46.78;27.83;;;;;;;;;;13100036;22;20359;-87
2024/02/16 13:33:30;;;;;;;48.27;27.67;;;;;;;;;;13103160;22;20874;-89
2024/02/16 13:38:34;;;;;;;48.43;29.57;;;;;;;;;;13104398;22;20753;-88
2024/02/16 13:43:36;;;;;;;47.33;29.90;;;;;;;;;;13138131;22;20358;-90
2024/02/16 13:48:41;;;;;;;40.07;25.67;;;;;;;;;;13123178;22;20375;-92
2024/02/16 13:53:45;;;;;;;47.45;28.45;;;;;;;;;;13105239;22;20371;-91
2024/02/16 13:58:48;;;;;;;43.97;27.60;;;;;;;;;;13126765;22;20832;-91
2024/02/16 14:03:51;;;;;;;47.40;29.87;;;;;;;;;;13101951;22;20709;-91
2024/02/16 14:08:57;;;;;;;45.20;27.92;;;;;;;;;;13105246;22;20382;-91
2024/02/16 14:14:00;;;;;;;47.07;28.43;;;;;;;;;;13102539;22;20454;-89
2024/02/16 14:19:02;;;;;;;48.83;29.70;;;;;;;;;;13100513;22;20368;-89
2024/02/16 14:24:10;;;;;;;46.67;28.50;;;;;;;;;;13100739;22;20391;-88
2024/02/16 14:29:12;;;;;;;49.70;29.38;;;;;;;;;;13102351;22;20351;-89
2024/02/16 14:34:16;;;;;;;52.42;29.15;;;;;;;;;;13100047;22;20371;-88
2024/02/16 14:39:19;;;;;;;52.63;30.48;;;;;;;;;;13101705;22;21144;-88
2024/02/16 14:44:22;;;;;;;50.95;30.08;;;;;;;;;;13104023;22;20379;-87
2024/02/16 14:49:26;;;;;;;53.87;31.27;;;;;;;;;;13102228;22;20401;-88
2024/02/16 14:54:30;;;;;;;54.83;30.42;;;;;;;;;;13119019;22;20722;-89
2024/02/16 14:59:32;;;;;;;55.97;31.67;;;;;;;;;;13140538;22;20379;-91
2024/02/16 15:04:35;;;;;;;60.30;32.92;;;;;;;;;;13110924;22;20437;-90
2024/02/16 15:09:39;;;;;;;57.40;32.65;;;;;;;;;;13122946;22;20428;-89
2024/02/16 15:14:42;;;;;;;58.80;34.10;;;;;;;;;;13126783;22;20371;-90
2024/02/16 15:19:44;;;;;;;59.65;34.60;;;;;;;;;;13105756;22;20383;-89
2024/02/16 15:24:48;;;;;;;56.67;33.95;;;;;;;;;;13103264;22;20389;-89
2024/02/16 15:29:50;;;;;;;66.57;35.58;;;;;;;;;;13104068;22;20382;-88
2024/02/16 15:34:53;;;;;;;62.10;35.22;;;;;;;;;;13107208;22;20372;-88
2024/02/16 15:39:59;;;;;;;64.97;37.00;;;;;;;;;;13103963;22;20450;-88
2024/02/16 15:45:03;;;;;;;66.10;36.65;;;;;;;;;;13110927;22;20363;-89
2024/02/16 15:50:09;;;;;;;72.63;38.47;;;;;;;;;;13105213;22;20355;-86
2024/02/16 15:55:13;;;;;;;68.85;38.80;;;;;;;;;;13104966;22;20367;-88
2024/02/16 16:00:16;;;;;;;69.32;38.10;;;;;;;;;;13118577;22;20379;-89
2024/02/16 16:05:18;;;;;;;66.87;36.40;;;;;;;;;;13104252;22;20464;-88
2024/02/16 16:10:23;;;;;;;68.80;36.83;;;;;;;;;;13109669;22;20375;-87
2024/02/16 16:15:25;;;;;;;68.55;36.22;;;;;;;;;;13130637;22;20371;-89
2024/02/16 16:20:27;;;;;;;68.57;36.22;;;;;;;;;;13110625;22;20468;-88
2024/02/16 16:25:31;;;;;;;64.85;35.15;;;;;;;;;;13134342;22;20351;-90
2024/02/16 16:30:34;;;;;;;71.27;36.83;;;;;;;;;;13129065;22;20823;-90
2024/02/16 16:35:37;;;;;;;69.65;37.90;;;;;;;;;;13108679;22;20371;-90
2024/02/16 16:40:41;;;;;;;67.82;36.92;;;;;;;;;;13107729;22;20440;-90
2024/02/16 16:45:43;;;;;;;70.37;39.53;;;;;;;;;;13109350;22;20433;-90
2024/02/16 16:50:45;;;;;;;78.70;44.90;;;;;;;;;;13108406;22;20428;-90
2024/02/16 16:55:49;;;;;;;93.80;49.83;;;;;;;;;;13107903;22;20462;-90
2024/02/16 17:00:52;;;;;;;96.22;52.22;;;;;;;;;;13119551;22;20379;-91
2024/02/16 17:05:54;;;;;;;106.55;58.70;;;;;;;;;;13105225;22;20409;-90
2024/02/16 17:10:58;;;;;;;110.97;58.28;;;;;;;;;;13101754;22;20405;-91
2024/02/16 17:16:01;;;;;;;107.17;59.07;;;;;;;;;;13100522;22;20356;-90
2024/02/16 17:21:03;;;;;;;104.97;55.40;;;;;;;;;;13100010;22;21136;-90
2024/02/16 17:26:07;;;;;;;96.85;53.28;;;;;;;;;;13105886;22;20375;-90
2024/02/16 17:31:10;;;;;;;112.43;57.27;;;;;;;;;;13104689;22;20371;-90
2024/02/16 17:36:13;;;;;;;118.33;59.33;;;;;;;;;;13106067;22;20404;-90
2024/02/16 17:41:22;;;;;;;114.32;58.75;;;;;;;;;;13114307;22;20371;-90
2024/02/16 17:46:24;;;;;;;111.78;58.17;;;;;;;;;;13114025;22;21077;-90
2024/02/16 17:51:26;;;;;;;110.35;57.50;;;;;;;;;;13100019;22;20376;-89
2024/02/16 17:56:31;;;;;;;118.57;57.72;;;;;;;;;;13096728;22;20429;-89
2024/02/16 18:01:33;;;;;;;112.90;60.25;;;;;;;;;;13130216;22;20442;-89
2024/02/16 18:06:38;;;;;;;129.32;60.83;;;;;;;;;;13109718;22;20429;-88
2024/02/16 18:11:41;;;;;;;120.63;60.75;;;;;;;;;;13101019;22;20368;-93
2024/02/16 18:16:44;;;;;;;118.97;59.33;;;;;;;;;;13106871;22;20387;-92
2024/02/16 18:21:46;;;;;;;124.40;62.15;;;;;;;;;;13103346;22;20409;-87
2024/02/16 18:26:51;;;;;;;129.05;65.50;;;;;;;;;;13100800;22;20359;-85
2024/02/16 18:31:54;;;;;;;126.80;62.72;;;;;;;;;;13096590;22;20383;-87
2024/02/16 18:36:56;;;;;;;120.60;60.28;;;;;;;;;;13110663;22;20370;-92
2024/02/16 18:42:00;;;;;;;126.15;62.08;;;;;;;;;;13104109;22;20460;-90
2024/02/16 18:47:02;;;;;;;113.85;57.33;;;;;;;;;;13116371;22;20363;-90
2024/02/16 18:52:05;;;;;;;110.13;55.92;;;;;;;;;;13105373;22;20902;-90
2024/02/16 18:57:09;;;;;;;118.80;58.63;;;;;;;;;;13120484;22;20352;-91
2024/02/16 19:02:11;;;;;;;114.55;56.08;;;;;;;;;;13106743;22;20444;-92
2024/02/16 19:07:15;;;;;;;108.38;55.08;;;;;;;;;;13106150;22;20404;-92
2024/02/16 19:12:19;;;;;;;96.95;50.67;;;;;;;;;;13106230;22;20472;-92
2024/02/16 19:17:22;;;;;;;84.63;48.87;;;;;;;;;;13107965;22;20394;-88
2024/02/16 19:22:24;;;;;;;94.80;50.63;;;;;;;;;;13106271;22;20393;-88
2024/02/16 19:27:28;;;;;;;98.00;51.63;;;;;;;;;;13106336;22;20823;-88
2024/02/16 19:32:31;;;;;;;94.78;50.45;;;;;;;;;;13105530;22;20379;-88
2024/02/16 19:37:33;;;;;;;89.68;47.75;;;;;;;;;;13109820;22;20371;-88
2024/02/16 19:42:37;;;;;;;71.57;43.00;;;;;;;;;;13110283;22;20375;-89
2024/02/16 19:47:42;;;;;;;82.47;42.25;;;;;;;;;;13160554;22;20842;-88
2024/02/16 19:52:44;;;;;;;84.25;44.25;;;;;;;;;;13169532;22;20841;-88
2024/02/16 19:57:49;;;;;;;86.80;46.78;;;;;;;;;;13168964;22;20402;-94
2024/02/16 20:02:55;;;;;;;82.05;43.97;;;;;;;;;;13168664;22;20419;-93
2024/02/16 20:07:58;;;;;;;91.67;46.33;;;;;;;;;;13185659;22;20354;-93
2024/02/16 20:13:02;;;;;;;79.53;44.00;;;;;;;;;;13169116;22;20370;-92
2024/02/16 20:18:07;;;;;;;75.87;43.63;;;;;;;;;;13166490;22;21160;-93
2024/02/16 20:23:10;;;;;;;78.20;45.20;;;;;;;;;;13191417;22;20469;-93
2024/02/16 20:28:16;;;;;;;85.13;46.33;;;;;;;;;;13168377;22;20384;-92
2024/02/16 20:33:22;;;;;;;80.13;45.08;;;;;;;;;;13167440;22;20377;-92
2024/02/16 20:38:25;;;;;;;82.75;44.45;;;;;;;;;;13166756;22;20361;-94
2024/02/16 20:43:31;;;;;;;79.27;44.47;;;;;;;;;;13166157;22;20469;-91
2024/02/16 20:48:34;;;;;;;79.20;43.63;;;;;;;;;;13165630;22;20604;-91
2024/02/16 20:53:37;;;;;;;84.03;44.93;;;;;;;;;;13164627;22;20426;-90
2024/02/16 20:58:41;;;;;;;80.47;42.90;;;;;;;;;;13169035;22;20962;-91
2024/02/16 21:03:43;;;;;;;78.55;41.38;;;;;;;;;;13182050;22;20385;-90
2024/02/16 21:08:46;;;;;;;75.50;42.05;;;;;;;;;;13168090;22;20374;-91
2024/02/16 21:13:51;;;;;;;74.03;42.90;;;;;;;;;;13168237;22;20433;-91
2024/02/16 21:18:54;;;;;;;77.78;42.72;;;;;;;;;;13177801;22;20366;-91
2024/02/16 21:23:57;;;;;;;75.03;41.17;;;;;;;;;;13166131;22;20395;-89
2024/02/16 21:29:04;;;;;;;78.68;41.60;;;;;;;;;;13169976;22;20365;-92
2024/02/16 21:34:07;;;;;;;85.90;43.05;;;;;;;;;;13169606;22;20399;-91
2024/02/16 21:39:10;;;;;;;82.23;41.63;;;;;;;;;;13168610;22;20407;-91
2024/02/16 21:44:14;;;;;;;83.40;44.78;;;;;;;;;;13170699;22;20427;-91
2024/02/16 21:49:18;;;;;;;96.63;46.28;;;;;;;;;;13171986;22;20845;-91
2024/02/16 21:54:20;;;;;;;105.05;51.47;;;;;;;;;;13180488;22;20361;-91
2024/02/16 21:59:24;;;;;;;95.75;49.35;;;;;;;;;;13172151;22;20833;-91
2024/02/16 22:04:27;;;;;;;99.20;49.47;;;;;;;;;;13186021;22;20361;-90
2024/02/16 22:09:29;;;;;;;95.15;49.83;;;;;;;;;;13171466;22;21174;-91
2024/02/16 22:14:33;;;;;;;87.15;44.70;;;;;;;;;;13171662;22;20821;-91
2024/02/16 22:19:35;;;;;;;92.93;45.97;;;;;;;;;;13144237;22;20465;-91
2024/02/16 22:24:39;;;;;;;89.03;47.47;;;;;;;;;;13193099;22;20610;-92
2024/02/16 22:29:43;;;;;;;93.88;47.08;;;;;;;;;;13173424;22;20354;-91
2024/02/16 22:34:45;;;;;;;94.05;45.78;;;;;;;;;;13172573;22;20358;-91
2024/02/16 22:39:47;;;;;;;84.60;41.35;;;;;;;;;;13175163;22;20377;-91
2024/02/16 22:44:51;;;;;;;82.68;42.60;;;;;;;;;;13171386;22;20369;-93
2024/02/16 22:49:53;;;;;;;90.47;43.63;;;;;;;;;;13172213;22;20707;-91
2024/02/16 22:54:55;;;;;;;102.82;42.85;;;;;;;;;;13170127;22;20373;-91
2024/02/16 22:59:59;;;;;;;102.65;42.97;;;;;;;;;;13171996;22;20389;-91
2024/02/16 23:05:05;;;;;;;82.93;41.10;;;;;;;;;;13170648;22;21199;-89
2024/02/16 23:10:10;;;;;;;91.38;42.72;;;;;;;;;;13168914;22;20406;-89
2024/02/16 23:15:15;;;;;;;86.07;42.67;;;;;;;;;;13171526;22;20418;-88
2024/02/16 23:20:18;;;;;;;89.32;41.97;;;;;;;;;;13198033;22;20416;-88
2024/02/16 23:25:20;;;;;;;89.70;41.90;;;;;;;;;;13177001;22;20917;-89
2024/02/16 23:30:24;;;;;;;81.00;41.25;;;;;;;;;;13176922;22;20354;-89
2024/02/16 23:35:27;;;;;;;80.38;40.97;;;;;;;;;;13199953;22;20739;-89
2024/02/16 23:40:29;;;;;;;82.43;41.03;;;;;;;;;;13176028;22;20917;-89
2024/02/16 23:45:35;;;;;;;77.10;42.70;;;;;;;;;;13177472;22;20381;-88
2024/02/16 23:50:37;;;;;;;80.40;44.47;;;;;;;;;;13198953;22;20415;-89
2024/02/16 23:55:39;;;;;;;74.07;42.78;;;;;;;;;;13177172;22;20410;-89
